Buoy 17652

sailwx.info

Track history (hours):
 
Tides and Currents Weather Stations Pressure Air Temp Water Temp Dewpoint Dewpoint Depression Visibility Wind Speed Wind Dir Waves Ship Positions

Drifting buoy 17652

Last reported at 2016-Dec-08 01:00 UTC. Time now 2016-Dec-08 04:07 UTC.
Position S 38°40' E 059°26'.

Barometer 1020.3 mb
Water temperature 15.5 ° C

Date/timePositionNaut miles runAvg speedWind from/ knotsBaromVisibWave heightAir tempDewpointWater temp
2016-Dec-08 01:00S 38°40' E 059°26'2 0.8 1020.3 15.5
2016-Dec-07 22:00S 38°40' E 059°23'0 0.0 1020.8 15.5
2016-Dec-07 21:00S 38°40' E 059°23'2 0.7 1021.1 15.5
2016-Dec-07 18:00S 38°38' E 059°24'0 0.5 1020.8 15.5
2016-Dec-07 17:00S 38°38' E 059°23'0 0.5 1021.6 15.6
2016-Dec-07 16:00S 38°38' E 059°24'1 0.6 1021.6 15.6
2016-Dec-07 15:00S 38°38' E 059°24'0 0.5 1021.7 15.6
2016-Dec-07 14:00S 38°38' E 059°25'1 0.8 1021.3 15.6
2016-Dec-07 13:00S 38°39' E 059°24'1 0.8 1021.1 15.6
2016-Dec-07 12:00S 38°40' E 059°23'0 0.0 1021.1 15.6
2016-Dec-07 11:00S 38°40' E 059°23'2 1.5 1020.8 15.6
2016-Dec-07 10:00S 38°39' E 059°25'5 1.2 1021.0 15.6
2016-Dec-07 06:00S 38°43' E 059°22'5 0.6 1019.5 15.4
2016-Dec-06 22:00S 38°46' E 059°17'0 0.5 1016.0 15.3
2016-Dec-06 21:00S 38°46' E 059°16'2 0.8 1016.0 15.4
2016-Dec-06 19:00S 38°47' E 059°15'1 1.3 1015.5 15.4
2016-Dec-06 18:00S 38°48' E 059°14'2 0.6 1015.0 15.4
2016-Dec-06 15:00S 38°50' E 059°14'1 1.3 1013.0 15.4
2016-Dec-06 14:00S 38°51' E 059°13'2 0.9 1012.7 15.5
2016-Dec-06 12:00S 38°53' E 059°13'2 1.8 1011.8 15.5
2016-Dec-06 11:00S 38°54' E 059°11'0 0.5 1011.6 15.5
2016-Dec-06 10:00S 38°54' E 059°10'5 1.2 1011.3 15.5
2016-Dec-06 06:00S 38°58' E 059°06'2 1.5 1010.2 15.4
2016-Dec-06 05:00S 38°57' E 059°04'1 0.8 1009.6 15.5
2016-Dec-06 04:00S 38°58' E 059°04'0 0.0 1009.6 15.5
2016-Dec-06 03:00S 38°58' E 059°04'1 0.6 1009.3 15.4
2016-Dec-06 01:00S 38°58' E 059°02'0 0.0 1008.8 15.4
2016-Dec-05 23:00S 38°58' E 059°02'0 0.5 1008.7 15.4
2016-Dec-05 22:00S 38°58' E 059°02'0 0.0 1009.1 15.4
2016-Dec-05 21:00S 38°58' E 059°02'3 0.6 1009.6 15.4
2016-Dec-05 17:00S 39°01' E 059°01'1 0.4 1010.1 15.4
2016-Dec-05 15:00S 39°01' E 059°00'1 0.8 1009.5 15.4
2016-Dec-05 14:00S 39°02' E 058°59'5 4.8 1008.7 15.4
2016-Dec-05 13:00S 39°03' E 058°53'0 0.0 1008.1 15.5
2016-Dec-05 12:00S 39°03' E 058°53'0 0.0 1008.5 15.5
2016-Dec-05 11:00S 39°03' E 058°53'1 0.8 1009.0 15.5
2016-Dec-05 10:00S 39°02' E 058°53'0 0.0 1009.6 15.6
2016-Dec-05 06:00S 39°02' E 058°53'1 0.9 1011.6 15.4
2016-Dec-05 05:00S 39°02' E 058°52'0 0.5 1011.9 15.4
2016-Dec-05 04:00S 39°02' E 058°51'1 0.5 1012.1 15.4
2016-Dec-05 02:00S 39°02' E 058°50'1 0.9 1012.6 15.4
2016-Dec-05 01:00S 39°02' E 058°49'0 0.5 1012.9 15.4
2016-Dec-05 00:00S 39°02' E 058°49'1 0.9 1013.4 15.4
2016-Dec-04 23:00S 39°02' E 058°48'0 0.5 1013.5 15.5
2016-Dec-04 22:00S 39°02' E 058°47'1 1.4 1014.3 15.5
2016-Dec-04 21:00S 39°02' E 058°46'0 0.2 1015.2 15.5
2016-Dec-04 19:00S 39°02' E 058°45'0 0.0 1016.3 15.5
2016-Dec-04 18:00S 39°02' E 058°45'0 0.5 1016.6 15.5
2016-Dec-04 17:00S 39°02' E 058°44'0 0.0 1016.9 15.6
2016-Dec-04 16:00S 39°02' E 058°44'1 0.5 1017.0 15.6
2016-Dec-04 13:00S 39°02' E 058°43'0 0.0 1016.4 15.6
2016-Dec-04 12:00S 39°02' E 058°43'1 0.9 1016.2 15.6
2016-Dec-04 11:00S 39°02' E 058°41'2 1.9 1016.2 15.6
2016-Dec-04 10:00S 39°02' E 058°39'0 0.1 1016.4 15.6
2016-Dec-04 06:00S 39°02' E 058°40'0 0.5 1016.0 15.4
2016-Dec-04 05:00S 39°02' E 058°39'1 0.9 1015.4 15.4
2016-Dec-04 04:00S 39°02' E 058°38'0 0.5 1014.7 15.4
2016-Dec-04 03:00S 39°02' E 058°38'1 0.7 1014.3 15.4
2016-Dec-04 01:00S 39°02' E 058°37'1 0.6 1012.2 15.3
2016-Dec-03 23:00S 39°03' E 058°35'2 2.3 1010.8 15.3
2016-Dec-03 22:00S 39°03' E 058°32'3 2.8 1010.3 15.3
2016-Dec-03 21:00S 39°03' E 058°29'0 0.2 1010.1 15.2
2016-Dec-03 19:00S 39°03' E 058°28'1 1.4 1009.8 15.1
2016-Dec-03 18:00S 39°03' E 058°26'2 0.9 1009.5 15.1
2016-Dec-03 16:00S 39°04' E 058°25'2 1.9 1008.6 15.1
2016-Dec-03 15:00S 39°06' E 058°24'2 0.8 1007.6 15.1
2016-Dec-03 12:00S 39°08' E 058°25'4 2.1 1003.7 15.3
2016-Dec-03 10:00S 39°13' E 058°25'6 5.6 1001.5 15.3
2016-Dec-03 09:00S 39°17' E 058°29'1 0.3 1000.4 15.3
2016-Dec-03 06:00S 39°17' E 058°29'3 2.9 998.5 15.4
2016-Dec-03 05:00S 39°19' E 058°32'8 1.4 998.3 15.4
2016-Dec-02 23:00S 39°23' E 058°41'2 1.5 1004.6 15.3
2016-Dec-02 22:00S 39°24' E 058°43'2 1.5 1005.7 15.3
2016-Dec-02 21:00S 39°25' E 058°44'2 0.8 1006.9 15.4
2016-Dec-02 19:00S 39°26' E 058°46'1 0.8 1009.5 15.3
2016-Dec-02 18:00S 39°26' E 058°46'1 0.8 1010.5 15.3
2016-Dec-02 17:00S 39°27' E 058°47'2 1.5 1011.0 15.3
2016-Dec-02 16:00S 39°28' E 058°49'1 0.6 1011.1 15.4
2016-Dec-02 14:00S 39°28' E 058°50'1 1.1 1011.5 15.4
2016-Dec-02 13:00S 39°29' E 058°51'0 0.5 1011.5 15.4
2016-Dec-02 12:00S 39°29' E 058°52'1 1.3 1012.0 15.5
2016-Dec-02 11:00S 39°30' E 058°52'0 0.0 1012.8 15.5
2016-Dec-02 10:00S 39°30' E 058°52'2 2.4 1012.9 15.5
2016-Dec-02 09:00S 39°32' E 058°53'0 0.2 1013.1 15.5
2016-Dec-02 06:00S 39°32' E 058°53'0 0.0 1013.2 15.3
2016-Dec-02 05:00S 39°32' E 058°53'1 0.8 1013.5 15.3
2016-Dec-02 04:00S 39°33' E 058°54'1 0.6 1013.1 15.3
2016-Dec-02 03:00S 39°34' E 058°54'2 0.9 1012.8 15.3
2016-Dec-02 01:00S 39°35' E 058°55'1 1.3 1011.3 15.3
2016-Dec-02 00:00S 39°37' E 058°55'2 2.4 1010.6 15.4
2016-Dec-01 23:00S 39°39' E 058°55'0 0.0 1010.1 15.4
2016-Dec-01 22:00S 39°39' E 058°55'4 1.2 1009.5 15.4
2016-Dec-01 19:00S 39°43' E 058°53'1 0.8 1008.7 15.4
2016-Dec-01 18:00S 39°43' E 058°53'1 1.3 1008.6 15.4
2016-Dec-01 17:00S 39°44' E 058°52'1 0.8 1008.2 15.4
2016-Dec-01 16:00S 39°45' E 058°52'2 1.1 1007.9 15.5
2016-Dec-01 14:00S 39°47' E 058°50'2 1.5 1007.2 15.4
2016-Dec-01 13:00S 39°47' E 058°48'0 0.0 1006.8 15.4
2016-Dec-01 12:00S 39°47' E 058°48'1 1.1 1007.0 15.4
2016-Dec-01 11:00S 39°48' E 058°47'0 0.0 1007.3 15.5
2016-Dec-01 10:00S 39°48' E 058°47'2 0.5 1007.5 15.4
2016-Dec-01 06:00S 39°49' E 058°45'0 0.0 1009.1 15.5
2016-Dec-01 05:00S 39°49' E 058°45'2 0.6 1009.3 15.5
2016-Dec-01 01:00S 39°52' E 058°45'0 0.0 1011.2 15.4
2016-Dec-01 00:00S 39°52' E 058°45'1 1.2 1011.6 15.4
2016-Nov-30 23:00S 39°53' E 058°45'0 0.0 1011.8 15.4
2016-Nov-30 22:00S 39°53' E 058°45'0 0.0 1012.4 15.4
2016-Nov-30 21:00S 39°53' E 058°45'3 1.6 1012.9 15.4
2016-Nov-30 19:00S 39°56' E 058°44'2 0.8 1013.5 15.5
2016-Nov-30 17:00S 39°57' E 058°45'0 0.5 1013.8 15.5
2016-Nov-30 16:00S 39°57' E 058°44'1 1.3 1013.3 15.5
2016-Nov-30 15:00S 39°58' E 058°45'1 1.3 1012.9 15.5
2016-Nov-30 14:00S 39°59' E 058°46'1 1.2 1012.5 15.6
2016-Nov-30 13:00S 40°01' E 058°46'1 1.2 1012.1 15.6
2016-Nov-30 12:00S 40°02' E 058°46'1 1.2 1012.2 15.6
2016-Nov-30 11:00S 40°03' E 058°46'0 0.0 1012.4 15.5
2016-Nov-30 10:00S 40°03' E 058°46'7 1.3 1012.2 15.4
2016-Nov-30 05:00S 40°10' E 058°46'1 1.3 1010.8 15.3
2016-Nov-30 04:00S 40°11' E 058°45'1 1.3 1010.9 15.3
2016-Nov-30 03:00S 40°12' E 058°44'1 0.5 1010.6 15.3
2016-Nov-30 01:00S 40°13' E 058°43'2 2.0 1010.3 15.3
2016-Nov-30 00:00S 40°14' E 058°42'0 0.0 1010.4 15.3
2016-Nov-29 23:00S 40°14' E 058°42'1 0.8 1010.7 15.3
2016-Nov-29 22:00S 40°14' E 058°41'0 0.0 1011.2 15.3
2016-Nov-29 21:00S 40°14' E 058°41'2 1.1 1011.6 15.3
2016-Nov-29 19:00S 40°16' E 058°40'0 0.0 1012.2 15.3
2016-Nov-29 18:00S 40°16' E 058°40'0 0.5 1012.4 15.4
2016-Nov-29 17:00S 40°16' E 058°39'1 1.1 1012.7 15.4
2016-Nov-29 16:00S 40°16' E 058°38'1 1.4 1012.6 15.4
2016-Nov-29 15:00S 40°16' E 058°36'1 0.8 1012.5 15.5
2016-Nov-29 14:00S 40°16' E 058°35'0 0.0 1012.2 15.5
2016-Nov-29 12:00S 40°16' E 058°35'1 1.1 1012.8 15.6
2016-Nov-29 11:00S 40°15' E 058°34'1 0.2 1013.4 15.6
2016-Nov-29 06:00S 40°14' E 058°34'1 0.6 1015.7 15.7
2016-Nov-29 05:00S 40°14' E 058°34'1 0.6 1015.8 15.5
2016-Nov-29 04:00S 40°14' E 058°34'3 0.9 1015.9 15.4
2016-Nov-29 01:00S 40°16' E 058°37'0 0.0 1015.2 15.1
2016-Nov-28 22:00S 40°16' E 058°37'0 0.0 1015.2 15.1
2016-Nov-28 21:00S 40°16' E 058°37'2 0.8 1015.2 15.1
2016-Nov-28 19:00S 40°17' E 058°38'0 0.0 1015.7 15.2
2016-Nov-28 18:00S 40°17' E 058°38'1 0.6 1015.7 15.2
2016-Nov-28 17:00S 40°17' E 058°38'1 0.9 1015.7 15.2
2016-Nov-28 16:00S 40°17' E 058°39'0 0.0 1015.5 15.2
2016-Nov-28 15:00S 40°17' E 058°39'2 1.9 1015.1 15.3
2016-Nov-28 14:00S 40°18' E 058°41'0 0.0 1014.3 15.3
2016-Nov-28 13:00S 40°18' E 058°41'1 1.1 1014.0 15.4
2016-Nov-28 12:00S 40°19' E 058°43'0 0.0 1013.9 15.4
2016-Nov-28 11:00S 40°19' E 058°43'0 0.0 1013.8 15.4
2016-Nov-28 10:00S 40°19' E 058°43'7 1.7 1013.8 15.4
2016-Nov-28 06:00S 40°23' E 058°49'0 0.0 1013.8 15.3
2016-Nov-28 05:00S 40°23' E 058°49'3 3.3 1014.0 15.2
2016-Nov-28 04:00S 40°26' E 058°52'4 1.2 1013.4 15.2
2016-Nov-28 01:00S 40°29' E 058°55'   1013.0 15.2
Track history (hours):
 
Tides and Currents Weather Stations Pressure Air Temp Water Temp Dewpoint Dewpoint Depression Visibility Wind Speed Wind Dir Waves Ship Positions

Drifting buoy 17652

Last reported at 2016-Dec-08 01:00 UTC. Time now 2016-Dec-08 04:07 UTC.
Position S 38°40' E 059°26'.

Barometer 1020.3 mb
Water temperature 15.5 ° C

Date/timePositionNaut miles runAvg speedWind from/ knotsBaromVisibWave heightAir tempDewpointWater temp
2016-Dec-08 01:00S 38°40' E 059°26'2 0.8 1020.3 15.5
2016-Dec-07 22:00S 38°40' E 059°23'0 0.0 1020.8 15.5
2016-Dec-07 21:00S 38°40' E 059°23'2 0.7 1021.1 15.5
2016-Dec-07 18:00S 38°38' E 059°24'0 0.5 1020.8 15.5
2016-Dec-07 17:00S 38°38' E 059°23'0 0.5 1021.6 15.6
2016-Dec-07 16:00S 38°38' E 059°24'1 0.6 1021.6 15.6
2016-Dec-07 15:00S 38°38' E 059°24'0 0.5 1021.7 15.6
2016-Dec-07 14:00S 38°38' E 059°25'1 0.8 1021.3 15.6
2016-Dec-07 13:00S 38°39' E 059°24'1 0.8 1021.1 15.6
2016-Dec-07 12:00S 38°40' E 059°23'0 0.0 1021.1 15.6
2016-Dec-07 11:00S 38°40' E 059°23'2 1.5 1020.8 15.6
2016-Dec-07 10:00S 38°39' E 059°25'5 1.2 1021.0 15.6
2016-Dec-07 06:00S 38°43' E 059°22'5 0.6 1019.5 15.4
2016-Dec-06 22:00S 38°46' E 059°17'0 0.5 1016.0 15.3
2016-Dec-06 21:00S 38°46' E 059°16'2 0.8 1016.0 15.4
2016-Dec-06 19:00S 38°47' E 059°15'1 1.3 1015.5 15.4
2016-Dec-06 18:00S 38°48' E 059°14'2 0.6 1015.0 15.4
2016-Dec-06 15:00S 38°50' E 059°14'1 1.3 1013.0 15.4
2016-Dec-06 14:00S 38°51' E 059°13'2 0.9 1012.7 15.5
2016-Dec-06 12:00S 38°53' E 059°13'2 1.8 1011.8 15.5
2016-Dec-06 11:00S 38°54' E 059°11'0 0.5 1011.6 15.5
2016-Dec-06 10:00S 38°54' E 059°10'5 1.2 1011.3 15.5
2016-Dec-06 06:00S 38°58' E 059°06'2 1.5 1010.2 15.4
2016-Dec-06 05:00S 38°57' E 059°04'1 0.8 1009.6 15.5
2016-Dec-06 04:00S 38°58' E 059°04'0 0.0 1009.6 15.5
2016-Dec-06 03:00S 38°58' E 059°04'1 0.6 1009.3 15.4
2016-Dec-06 01:00S 38°58' E 059°02'0 0.0 1008.8 15.4
2016-Dec-05 23:00S 38°58' E 059°02'0 0.5 1008.7 15.4
2016-Dec-05 22:00S 38°58' E 059°02'0 0.0 1009.1 15.4
2016-Dec-05 21:00S 38°58' E 059°02'3 0.6 1009.6 15.4
2016-Dec-05 17:00S 39°01' E 059°01'1 0.4 1010.1 15.4
2016-Dec-05 15:00S 39°01' E 059°00'1 0.8 1009.5 15.4
2016-Dec-05 14:00S 39°02' E 058°59'5 4.8 1008.7 15.4
2016-Dec-05 13:00S 39°03' E 058°53'0 0.0 1008.1 15.5
2016-Dec-05 12:00S 39°03' E 058°53'0 0.0 1008.5 15.5
2016-Dec-05 11:00S 39°03' E 058°53'1 0.8 1009.0 15.5
2016-Dec-05 10:00S 39°02' E 058°53'0 0.0 1009.6 15.6
2016-Dec-05 06:00S 39°02' E 058°53'1 0.9 1011.6 15.4
2016-Dec-05 05:00S 39°02' E 058°52'0 0.5 1011.9 15.4
2016-Dec-05 04:00S 39°02' E 058°51'1 0.5 1012.1 15.4
2016-Dec-05 02:00S 39°02' E 058°50'1 0.9 1012.6 15.4
2016-Dec-05 01:00S 39°02' E 058°49'0 0.5 1012.9 15.4
2016-Dec-05 00:00S 39°02' E 058°49'1 0.9 1013.4 15.4
2016-Dec-04 23:00S 39°02' E 058°48'0 0.5 1013.5 15.5
2016-Dec-04 22:00S 39°02' E 058°47'1 1.4 1014.3 15.5
2016-Dec-04 21:00S 39°02' E 058°46'0 0.2 1015.2 15.5
2016-Dec-04 19:00S 39°02' E 058°45'0 0.0 1016.3 15.5
2016-Dec-04 18:00S 39°02' E 058°45'0 0.5 1016.6 15.5
2016-Dec-04 17:00S 39°02' E 058°44'0 0.0 1016.9 15.6
2016-Dec-04 16:00S 39°02' E 058°44'1 0.5 1017.0 15.6
2016-Dec-04 13:00S 39°02' E 058°43'0 0.0 1016.4 15.6
2016-Dec-04 12:00S 39°02' E 058°43'1 0.9 1016.2 15.6
2016-Dec-04 11:00S 39°02' E 058°41'2 1.9 1016.2 15.6
2016-Dec-04 10:00S 39°02' E 058°39'0 0.1 1016.4 15.6
2016-Dec-04 06:00S 39°02' E 058°40'0 0.5 1016.0 15.4
2016-Dec-04 05:00S 39°02' E 058°39'1 0.9 1015.4 15.4
2016-Dec-04 04:00S 39°02' E 058°38'0 0.5 1014.7 15.4
2016-Dec-04 03:00S 39°02' E 058°38'1 0.7 1014.3 15.4
2016-Dec-04 01:00S 39°02' E 058°37'1 0.6 1012.2 15.3
2016-Dec-03 23:00S 39°03' E 058°35'2 2.3 1010.8 15.3
2016-Dec-03 22:00S 39°03' E 058°32'3 2.8 1010.3 15.3
2016-Dec-03 21:00S 39°03' E 058°29'0 0.2 1010.1 15.2
2016-Dec-03 19:00S 39°03' E 058°28'1 1.4 1009.8 15.1
2016-Dec-03 18:00S 39°03' E 058°26'2 0.9 1009.5 15.1
2016-Dec-03 16:00S 39°04' E 058°25'2 1.9 1008.6 15.1
2016-Dec-03 15:00S 39°06' E 058°24'2 0.8 1007.6 15.1
2016-Dec-03 12:00S 39°08' E 058°25'4 2.1 1003.7 15.3
2016-Dec-03 10:00S 39°13' E 058°25'6 5.6 1001.5 15.3
2016-Dec-03 09:00S 39°17' E 058°29'1 0.3 1000.4 15.3
2016-Dec-03 06:00S 39°17' E 058°29'3 2.9 998.5 15.4
2016-Dec-03 05:00S 39°19' E 058°32'8 1.4 998.3 15.4
2016-Dec-02 23:00S 39°23' E 058°41'2 1.5 1004.6 15.3
2016-Dec-02 22:00S 39°24' E 058°43'2 1.5 1005.7 15.3
2016-Dec-02 21:00S 39°25' E 058°44'2 0.8 1006.9 15.4
2016-Dec-02 19:00S 39°26' E 058°46'1 0.8 1009.5 15.3
2016-Dec-02 18:00S 39°26' E 058°46'1 0.8 1010.5 15.3
2016-Dec-02 17:00S 39°27' E 058°47'2 1.5 1011.0 15.3
2016-Dec-02 16:00S 39°28' E 058°49'1 0.6 1011.1 15.4
2016-Dec-02 14:00S 39°28' E 058°50'1 1.1 1011.5 15.4
2016-Dec-02 13:00S 39°29' E 058°51'0 0.5 1011.5 15.4
2016-Dec-02 12:00S 39°29' E 058°52'1 1.3 1012.0 15.5
2016-Dec-02 11:00S 39°30' E 058°52'0 0.0 1012.8 15.5
2016-Dec-02 10:00S 39°30' E 058°52'2 2.4 1012.9 15.5
2016-Dec-02 09:00S 39°32' E 058°53'0 0.2 1013.1 15.5
2016-Dec-02 06:00S 39°32' E 058°53'0 0.0 1013.2 15.3
2016-Dec-02 05:00S 39°32' E 058°53'1 0.8 1013.5 15.3
2016-Dec-02 04:00S 39°33' E 058°54'1 0.6 1013.1 15.3
2016-Dec-02 03:00S 39°34' E 058°54'2 0.9 1012.8 15.3
2016-Dec-02 01:00S 39°35' E 058°55'1 1.3 1011.3 15.3
2016-Dec-02 00:00S 39°37' E 058°55'2 2.4 1010.6 15.4
2016-Dec-01 23:00S 39°39' E 058°55'0 0.0 1010.1 15.4
2016-Dec-01 22:00S 39°39' E 058°55'4 1.2 1009.5 15.4
2016-Dec-01 19:00S 39°43' E 058°53'1 0.8 1008.7 15.4
2016-Dec-01 18:00S 39°43' E 058°53'1 1.3 1008.6 15.4
2016-Dec-01 17:00S 39°44' E 058°52'1 0.8 1008.2 15.4
2016-Dec-01 16:00S 39°45' E 058°52'2 1.1 1007.9 15.5
2016-Dec-01 14:00S 39°47' E 058°50'2 1.5 1007.2 15.4
2016-Dec-01 13:00S 39°47' E 058°48'0 0.0 1006.8 15.4
2016-Dec-01 12:00S 39°47' E 058°48'1 1.1 1007.0 15.4
2016-Dec-01 11:00S 39°48' E 058°47'0 0.0 1007.3 15.5
2016-Dec-01 10:00S 39°48' E 058°47'2 0.5 1007.5 15.4
2016-Dec-01 06:00S 39°49' E 058°45'0 0.0 1009.1 15.5
2016-Dec-01 05:00S 39°49' E 058°45'2 0.6 1009.3 15.5
2016-Dec-01 01:00S 39°52' E 058°45'0 0.0 1011.2 15.4
2016-Dec-01 00:00S 39°52' E 058°45'1 1.2 1011.6 15.4
2016-Nov-30 23:00S 39°53' E 058°45'0 0.0 1011.8 15.4
2016-Nov-30 22:00S 39°53' E 058°45'0 0.0 1012.4 15.4
2016-Nov-30 21:00S 39°53' E 058°45'3 1.6 1012.9 15.4
2016-Nov-30 19:00S 39°56' E 058°44'2 0.8 1013.5 15.5
2016-Nov-30 17:00S 39°57' E 058°45'0 0.5 1013.8 15.5
2016-Nov-30 16:00S 39°57' E 058°44'1 1.3 1013.3 15.5
2016-Nov-30 15:00S 39°58' E 058°45'1 1.3 1012.9 15.5
2016-Nov-30 14:00S 39°59' E 058°46'1 1.2 1012.5 15.6
2016-Nov-30 13:00S 40°01' E 058°46'1 1.2 1012.1 15.6
2016-Nov-30 12:00S 40°02' E 058°46'1 1.2 1012.2 15.6
2016-Nov-30 11:00S 40°03' E 058°46'0 0.0 1012.4 15.5
2016-Nov-30 10:00S 40°03' E 058°46'7 1.3 1012.2 15.4
2016-Nov-30 05:00S 40°10' E 058°46'1 1.3 1010.8 15.3
2016-Nov-30 04:00S 40°11' E 058°45'1 1.3 1010.9 15.3
2016-Nov-30 03:00S 40°12' E 058°44'1 0.5 1010.6 15.3
2016-Nov-30 01:00S 40°13' E 058°43'2 2.0 1010.3 15.3
2016-Nov-30 00:00S 40°14' E 058°42'0 0.0 1010.4 15.3
2016-Nov-29 23:00S 40°14' E 058°42'1 0.8 1010.7 15.3
2016-Nov-29 22:00S 40°14' E 058°41'0 0.0 1011.2 15.3
2016-Nov-29 21:00S 40°14' E 058°41'2 1.1 1011.6 15.3
2016-Nov-29 19:00S 40°16' E 058°40'0 0.0 1012.2 15.3
2016-Nov-29 18:00S 40°16' E 058°40'0 0.5 1012.4 15.4
2016-Nov-29 17:00S 40°16' E 058°39'1 1.1 1012.7 15.4
2016-Nov-29 16:00S 40°16' E 058°38'1 1.4 1012.6 15.4
2016-Nov-29 15:00S 40°16' E 058°36'1 0.8 1012.5 15.5
2016-Nov-29 14:00S 40°16' E 058°35'0 0.0 1012.2 15.5
2016-Nov-29 12:00S 40°16' E 058°35'1 1.1 1012.8 15.6
2016-Nov-29 11:00S 40°15' E 058°34'1 0.2 1013.4 15.6
2016-Nov-29 06:00S 40°14' E 058°34'1 0.6 1015.7 15.7
2016-Nov-29 05:00S 40°14' E 058°34'1 0.6 1015.8 15.5
2016-Nov-29 04:00S 40°14' E 058°34'3 0.9 1015.9 15.4
2016-Nov-29 01:00S 40°16' E 058°37'0 0.0 1015.2 15.1
2016-Nov-28 22:00S 40°16' E 058°37'0 0.0 1015.2 15.1
2016-Nov-28 21:00S 40°16' E 058°37'2 0.8 1015.2 15.1
2016-Nov-28 19:00S 40°17' E 058°38'0 0.0 1015.7 15.2
2016-Nov-28 18:00S 40°17' E 058°38'1 0.6 1015.7 15.2
2016-Nov-28 17:00S 40°17' E 058°38'1 0.9 1015.7 15.2
2016-Nov-28 16:00S 40°17' E 058°39'0 0.0 1015.5 15.2
2016-Nov-28 15:00S 40°17' E 058°39'2 1.9 1015.1 15.3
2016-Nov-28 14:00S 40°18' E 058°41'0 0.0 1014.3 15.3
2016-Nov-28 13:00S 40°18' E 058°41'1 1.1 1014.0 15.4
2016-Nov-28 12:00S 40°19' E 058°43'0 0.0 1013.9 15.4
2016-Nov-28 11:00S 40°19' E 058°43'0 0.0 1013.8 15.4
2016-Nov-28 10:00S 40°19' E 058°43'7 1.7 1013.8 15.4
2016-Nov-28 06:00S 40°23' E 058°49'0 0.0 1013.8 15.3
2016-Nov-28 05:00S 40°23' E 058°49'3 3.3 1014.0 15.2
2016-Nov-28 04:00S 40°26' E 058°52'4 1.2 1013.4 15.2
2016-Nov-28 01:00S 40°29' E 058°55'   1013.0 15.2

Dump ship's entire track history